TimeEDT,TemperatureF,Dew PointF,Humidity,Sea Level PressureIn,VisibilityMPH,Wind Direction,Wind SpeedMPH,Gust SpeedMPH,PrecipitationIn,Events,Conditions,WindDirDegrees,DateUTC
12:53 AM,-9999,-9999,N/A,30.11,-9999.0,North,-9999.0,-,N/A,,Unknown,0,2012-10-05 04:53:00
1:53 AM,-9999,-9999,N/A,30.11,-9999.0,North,-9999.0,-,N/A,,Unknown,0,2012-10-05 05:53:00
2:53 AM,-9999,-9999,N/A,30.14,-9999.0,North,-9999.0,-,N/A,,Unknown,0,2012-10-05 06:53:00
4:53 AM,-9999,-9999,N/A,30.15,-9999.0,North,-9999.0,-,N/A,,Unknown,0,2012-10-05 08:53:00
5:53 AM,-9999,-9999,N/A,30.14,-9999.0,North,-9999.0,-,N/A,,Unknown,0,2012-10-05 09:53:00
6:53 AM,-9999,-9999,N/A,30.12,-9999.0,North,-9999.0,-,N/A,,Unknown,0,2012-10-05 10:53:00
7:53 AM,51.1,46.0,83,30.14,-9999.0,NNW,10.4,-,N/A,,Unknown,330,2012-10-05 11:53:00
8:21 AM,50.0,44.6,82,30.14,10.0,North,8.1,-,N/A,,Overcast,350,2012-10-05 12:21:00
8:53 AM,48.9,44.1,83,30.15,10.0,North,5.8,-,N/A,,Mostly Cloudy,360,2012-10-05 12:53:00
9:02 AM,48.2,44.6,87,30.15,10.0,NW,3.5,-,0.00,Rain-Thunderstorm,Light Rain,310,2012-10-05 13:02:00
9:14 AM,48.2,44.6,87,30.15,1.5,North,3.5,-,0.12,Rain-Thunderstorm,Heavy Thunderstorms and Rain,10,2012-10-05 13:14:00
9:24 AM,48.2,44.6,87,30.15,4.0,Calm,Calm,-,0.15,Rain-Thunderstorm,Light Thunderstorms and Rain,0,2012-10-05 13:24:00
9:39 AM,48.2,46.4,93,30.15,10.0,Variable,3.5,-,0.15,Thunderstorm,Thunderstorm,0,2012-10-05 13:39:00
9:50 AM,48.2,46.4,93,30.15,10.0,NW,4.6,-,0.15,,Overcast,310,2012-10-05 13:50:00
9:53 AM,48.9,46.0,90,30.15,10.0,NNW,5.8,-,0.15,,Overcast,340,2012-10-05 13:53:00
10:11 AM,48.2,46.4,93,30.16,6.0,NW,3.5,-,0.01,Rain,Light Rain,310,2012-10-05 14:11:00
10:26 AM,48.2,46.4,93,30.17,1.8,Calm,Calm,-,0.08,Rain-Thunderstorm,Thunderstorms and Rain,0,2012-10-05 14:26:00
10:41 AM,48.2,46.4,93,30.17,1.0,WSW,3.5,-,0.16,Rain-Thunderstorm,Thunderstorms and Rain,240,2012-10-05 14:41:00
10:47 AM,48.2,46.4,93,30.17,4.0,WNW,9.2,-,0.16,Rain-Thunderstorm,Light Thunderstorms and Rain,290,2012-10-05 14:47:00
10:53 AM,48.0,46.0,93,30.18,6.0,West,6.9,-,0.18,Rain,Light Rain,280,2012-10-05 14:53:00
10:59 AM,48.2,46.4,93,30.16,2.5,NW,5.8,-,0.03,Rain-Thunderstorm,Heavy Rain,320,2012-10-05 14:59:00
11:10 AM,46.4,44.6,93,30.17,3.0,NW,6.9,-,0.06,Rain-Thunderstorm,Rain,310,2012-10-05 15:10:00
11:19 AM,46.4,46.4,100,30.17,8.0,WNW,9.2,-,0.07,Rain,Light Rain,300,2012-10-05 15:19:00
11:27 AM,46.4,44.6,93,30.17,7.0,WNW,6.9,-,0.08,Rain,Light Rain,300,2012-10-05 15:27:00
11:36 AM,46.4,44.6,93,30.14,5.0,NNW,5.8,-,0.10,Rain,Rain,340,2012-10-05 15:36:00
11:46 AM,46.4,44.6,93,30.14,6.0,North,3.5,-,0.11,Rain,Light Rain,350,2012-10-05 15:46:00
11:53 AM,46.9,45.0,93,30.15,5.0,Calm,Calm,-,0.12,Rain,Rain,0,2012-10-05 15:53:00
12:00 PM,46.4,44.6,93,30.15,3.0,NW,4.6,-,0.02,Rain,Rain,310,2012-10-05 16:00:00
12:24 PM,46.4,44.6,93,30.15,5.0,Calm,Calm,-,0.05,Rain,Light Rain,0,2012-10-05 16:24:00
12:33 PM,46.4,44.6,93,30.15,3.0,WNW,8.1,-,0.08,Rain,Rain,290,2012-10-05 16:33:00
12:57 PM,46.4,44.6,93,30.14,2.5,NNW,8.1,-,0.02,Rain,Rain,330,2012-10-05 16:57:00
1:04 PM,46.4,44.6,93,30.11,3.0,North,6.9,-,0.04,Rain-Thunderstorm,Thunderstorms and Rain,10,2012-10-05 17:04:00
1:25 PM,46.4,44.6,93,30.12,10.0,NW,5.8,-,0.07,Rain,Light Rain,310,2012-10-05 17:25:00
1:51 PM,46.4,44.6,93,30.13,10.0,NW,9.2,-,0.07,,Overcast,320,2012-10-05 17:51:00
1:53 PM,46.0,44.1,93,30.13,10.0,NW,6.9,-,0.07,,Overcast,320,2012-10-05 17:53:00
2:04 PM,46.4,44.6,93,30.12,10.0,NW,8.1,-,N/A,,Overcast,310,2012-10-05 18:04:00
2:19 PM,46.4,44.6,93,30.12,9.0,WNW,8.1,-,0.01,Rain,Light Rain,300,2012-10-05 18:19:00
2:53 PM,46.0,44.1,93,30.10,9.0,NNW,10.4,-,0.02,Rain,Light Rain,330,2012-10-05 18:53:00
3:53 PM,46.0,44.1,93,30.10,10.0,NW,6.9,-,0.01,,Overcast,310,2012-10-05 19:53:00
4:12 PM,46.4,42.8,87,30.08,10.0,NNW,6.9,-,0.00,Rain,Light Rain,340,2012-10-05 20:12:00
4:20 PM,46.4,42.8,87,30.06,10.0,Variable,6.9,-,0.00,Rain,Light Rain,0,2012-10-05 20:20:00
4:25 PM,46.4,42.8,87,30.09,10.0,NNW,10.4,-,0.00,Rain,Light Rain,340,2012-10-05 20:25:00
4:28 PM,46.4,42.8,87,30.09,10.0,NW,11.5,-,0.00,Rain,Light Rain,310,2012-10-05 20:28:00
4:51 PM,44.6,42.8,93,30.07,10.0,North,9.2,-,0.01,,Overcast,350,2012-10-05 20:51:00
4:53 PM,45.0,42.1,90,30.07,10.0,NNW,9.2,-,0.01,,Overcast,340,2012-10-05 20:53:00
5:34 PM,46.4,42.8,87,30.07,10.0,NW,9.2,43.7,0.00,Rain,Light Rain,320,2012-10-05 21:34:00
5:53 PM,45.0,42.1,90,30.06,10.0,NNW,10.4,-,0.00,Rain,Light Rain,340,2012-10-05 21:53:00
6:03 PM,44.6,42.8,93,30.08,8.0,NW,12.7,-,0.00,Rain,Light Rain,310,2012-10-05 22:03:00
6:11 PM,44.6,42.8,93,30.08,9.0,NW,12.7,-,0.01,Rain,Light Rain,320,2012-10-05 22:11:00
6:22 PM,44.6,41.0,87,30.08,7.0,NW,12.7,-,0.02,Rain,Light Rain,320,2012-10-05 22:22:00
6:53 PM,43.0,39.9,89,30.07,9.0,NNW,11.5,-,0.07,Rain,Light Rain,340,2012-10-05 22:53:00
7:27 PM,42.8,39.2,87,30.10,3.0,NW,11.5,-,0.06,Rain,Heavy Rain,310,2012-10-05 23:27:00
7:53 PM,41.0,39.0,93,30.11,5.0,NW,11.5,-,0.13,Rain,Rain,320,2012-10-05 23:53:00
8:38 PM,41.0,39.2,93,30.09,10.0,NNW,10.4,-,0.12,Rain,Light Rain,340,2012-10-06 00:38:00
8:53 PM,41.0,39.0,93,30.09,8.0,North,12.7,19.6,0.13,Rain,Rain,350,2012-10-06 00:53:00
9:13 PM,41.0,39.2,93,30.09,10.0,NNW,11.5,-,0.02,Rain,Light Rain,340,2012-10-06 01:13:00
9:53 PM,41.0,39.0,93,30.11,7.0,NW,10.4,17.3,0.03,Rain,Rain,320,2012-10-06 01:53:00
10:39 PM,41.0,39.2,93,30.08,4.0,NNW,8.1,-,0.17,Rain,Rain,340,2012-10-06 02:39:00
10:53 PM,41.0,39.0,93,30.09,5.0,NW,6.9,-,0.21,Rain,Rain,320,2012-10-06 02:53:00
11:20 PM,41.0,39.2,93,30.09,10.0,NW,8.1,-,0.00,,Overcast,310,2012-10-06 03:20:00
11:33 PM,41.0,39.2,93,30.09,10.0,NW,8.1,-,0.00,,Overcast,310,2012-10-06 03:33:00
11:38 PM,41.0,39.2,93,30.09,10.0,NW,8.1,-,0.00,,Overcast,310,2012-10-06 03:38:00
11:53 PM,41.0,39.0,93,30.10,10.0,NW,8.1,-,0.00,,Overcast,310,2012-10-06 03:53:00